Time;durP1;ratioP1;P1;durP2;ratioP2;P2;SDS_P1;SDS_P2;PMS_P1;PMS_P2;Temp;Humidity;BMP_temperature;BMP_pressure;BME280_temperature;BME280_humidity;BME280_pressure;Samples;Min_cycle;Max_cycle;Signal;HPM_P1;HPM_P2
2022/05/20 00:01:07;;;;;;;10.93;3.33;;;18.00;99.90;;;18.88;100.00;98590.09;4999743;28;20494;-77
2022/05/20 00:03:39;;;;;;;7.43;3.13;;;18.00;99.90;;;18.90;100.00;98593.31;4999968;28;20943;-77
2022/05/20 00:06:11;;;;;;;10.23;3.40;;;18.00;99.90;;;18.90;100.00;98614.50;4999955;28;20474;-77
2022/05/20 00:08:40;;;;;;;13.23;3.17;;;18.00;99.90;;;18.89;100.00;98623.50;5001551;28;20466;-77
2022/05/20 00:11:11;;;;;;;4.80;3.20;;;18.00;99.90;;;18.91;100.00;98621.44;4999162;28;20478;-77
2022/05/20 00:13:43;;;;;;;5.47;3.37;;;18.00;99.90;;;18.92;100.00;98617.72;5000739;28;20446;-77
2022/05/20 00:16:14;;;;;;;6.40;3.00;;;18.00;99.90;;;18.90;100.00;98643.66;5001298;28;20484;-77
2022/05/20 00:18:44;;;;;;;5.90;3.03;;;18.00;99.90;;;18.90;100.00;98668.34;5005870;28;20983;-77
2022/05/20 00:21:15;;;;;;;4.87;3.27;;;17.90;99.90;;;18.93;100.00;98677.69;5002971;28;20535;-77
2022/05/20 00:23:45;;;;;;;4.90;2.73;;;18.00;99.90;;;18.90;100.00;98680.78;5005985;28;20447;-77
2022/05/20 00:26:15;;;;;;;4.20;2.40;;;18.10;99.90;;;18.89;100.00;98647.34;5005632;28;20521;-77
2022/05/20 00:28:48;;;;;;;9.13;3.50;;;18.10;99.90;;;18.88;100.00;98620.03;5001581;28;21060;-77
2022/05/20 00:31:18;;;;;;;12.17;3.50;;;18.00;99.90;;;18.82;100.00;98646.63;4999791;28;20534;-77
2022/05/20 00:33:47;;;;;;;8.30;3.90;;;18.00;99.90;;;18.77;100.00;98649.16;5000823;28;20447;-77
2022/05/20 00:36:19;;;;;;;16.53;3.37;;;17.90;99.90;;;18.80;100.00;98622.19;5001951;28;20502;-77
2022/05/20 00:38:49;;;;;;;11.87;3.83;;;18.10;99.90;;;18.77;100.00;98618.16;5000732;28;20458;-78
2022/05/20 00:41:20;;;;;;;11.80;3.17;;;18.00;99.90;;;18.75;100.00;98622.06;4998893;28;20474;-77
2022/05/20 00:43:51;;;;;;;7.83;3.20;;;18.00;99.90;;;18.66;100.00;98626.06;5000850;28;20467;-78
2022/05/20 00:46:29;;;;;;;11.47;3.30;;;18.00;99.90;;;18.60;100.00;98620.63;4999055;28;20880;-77
2022/05/20 00:49:04;;;;;;;4.70;2.90;;;18.00;99.90;;;18.60;100.00;98615.31;4998605;28;20466;-77
2022/05/20 00:51:40;;;;;;;11.27;3.10;;;17.90;99.90;;;18.62;100.00;98611.66;4998845;28;20982;-77
2022/05/20 00:54:18;;;;;;;4.73;2.53;;;17.80;99.90;;;18.63;100.00;98608.78;4998232;28;20459;-77
2022/05/20 00:56:56;;;;;;;5.43;2.77;;;17.80;99.90;;;18.64;100.00;98593.69;4998788;28;21065;-77
2022/05/20 00:59:29;;;;;;;9.33;3.20;;;17.90;99.90;;;18.59;100.00;98584.59;4999046;28;20467;-77
2022/05/20 01:02:04;;;;;;;8.73;3.23;;;17.80;99.90;;;18.64;100.00;98580.44;4996862;28;20460;-77
2022/05/20 01:04:36;;;;;;;19.77;3.37;;;17.80;99.90;;;18.62;100.00;98587.81;4999897;28;20528;-77
2022/05/20 01:07:09;;;;;;;4.33;3.10;;;17.80;99.90;;;18.62;100.00;98595.75;4998890;28;20484;-77
2022/05/20 01:09:39;;;;;;;4.20;2.50;;;17.80;99.90;;;18.60;100.00;98617.97;4997415;28;20467;-77
2022/05/20 01:12:09;;;;;;;4.90;2.50;;;17.80;99.90;;;18.56;100.00;98606.22;4999060;28;20472;-77
2022/05/20 01:14:40;;;;;;;13.50;2.67;;;17.80;99.90;;;18.55;100.00;98587.88;4997129;28;20461;-76
2022/05/20 01:17:10;;;;;;;3.70;2.60;;;17.80;99.90;;;18.58;100.00;98587.44;4997433;28;21005;-77
2022/05/20 01:19:45;;;;;;;3.53;2.53;;;17.80;99.90;;;18.60;100.00;98593.34;4999125;28;20596;-77
2022/05/20 01:22:31;;;;;;;3.07;2.77;;;17.80;99.90;;;18.64;100.00;98612.25;4995868;28;20466;-77
2022/05/20 01:25:03;;;;;;;6.70;2.63;;;17.80;99.90;;;18.58;100.00;98630.63;4996453;28;20958;-77
2022/05/20 01:27:36;;;;;;;4.53;2.80;;;17.70;99.90;;;18.45;100.00;98667.06;4999428;28;20463;-77
2022/05/20 01:30:08;;;;;;;12.23;2.70;;;17.50;99.90;;;18.52;100.00;98652.72;4998224;28;20462;-80
2022/05/20 01:32:38;;;;;;;4.93;2.53;;;17.70;99.90;;;18.54;100.00;98618.88;4998307;28;20472;-77
2022/05/20 01:35:13;;;;;;;31.77;3.50;;;17.70;99.90;;;18.54;100.00;98618.88;4997458;28;20460;-77
2022/05/20 01:37:42;;;;;;;4.83;2.50;;;17.70;99.90;;;18.56;100.00;98606.22;4998617;28;20476;-78
2022/05/20 01:40:13;;;;;;;6.23;2.60;;;17.70;99.90;;;18.57;100.00;98591.94;4998092;28;21023;-77
2022/05/20 01:42:53;;;;;;;6.83;2.50;;;17.70;99.90;;;18.57;100.00;98605.16;4997246;28;21046;-77
2022/05/20 01:45:34;;;;;;;4.23;2.60;;;17.70;99.90;;;18.57;100.00;98613.13;4997140;28;20465;-77
2022/05/20 01:48:20;;;;;;;4.60;2.67;;;17.70;99.90;;;18.57;100.00;98620.25;4997703;28;21234;-78
2022/05/20 01:50:54;;;;;;;5.83;3.23;;;17.80;99.90;;;18.49;100.00;98613.41;4996699;28;20502;-78
2022/05/20 01:53:36;;;;;;;7.50;2.73;;;17.80;99.90;;;18.49;100.00;98610.78;4995400;28;20455;-78
2022/05/20 01:56:16;;;;;;;3.83;2.83;;;17.80;99.90;;;18.50;100.00;98593.03;4998027;28;20483;-78
2022/05/20 01:58:54;;;;;;;3.00;2.33;;;17.80;99.90;;;18.51;100.00;98581.41;4997109;28;20960;-77
2022/05/20 02:01:37;;;;;;;3.63;2.10;;;17.80;99.90;;;18.53;100.00;98574.84;4996262;28;20455;-77
2022/05/20 02:04:16;;;;;;;3.80;3.00;;;17.70;99.90;;;18.53;100.00;98563.47;4997977;28;20459;-78
2022/05/20 02:06:53;;;;;;;9.70;2.90;;;17.80;99.90;;;18.53;100.00;98568.78;4999745;28;20526;-78
2022/05/20 02:09:31;;;;;;;8.20;2.90;;;17.60;99.90;;;18.55;100.00;98564.06;5000631;28;20467;-77
2022/05/20 02:12:02;;;;;;;4.90;2.30;;;17.60;99.90;;;18.56;100.00;98560.38;5000319;28;20499;-77
2022/05/20 02:14:39;;;;;;;6.50;2.50;;;17.60;99.90;;;18.56;100.00;98563.84;4997850;28;20574;-78
2022/05/20 02:17:16;;;;;;;7.10;2.90;;;17.70;99.90;;;18.56;100.00;98557.72;4996952;28;20494;-77
2022/05/20 02:19:53;;;;;;;4.77;2.87;;;17.70;99.90;;;18.55;100.00;98567.50;5000697;28;20462;-78
2022/05/20 02:22:29;;;;;;;6.57;2.47;;;17.70;99.90;;;18.55;100.00;98556.91;5002060;28;20528;-77
2022/05/20 02:25:02;;;;;;;3.80;2.33;;;17.70;99.90;;;18.53;100.00;98553.66;5001257;28;20512;-77
2022/05/20 02:27:46;;;;;;;4.53;2.57;;;17.70;99.90;;;18.51;100.00;98558.41;5003196;28;20842;-77
2022/05/20 02:30:20;;;;;;;5.00;2.77;;;17.70;99.90;;;18.53;100.00;98558.97;5001602;28;20498;-77
2022/05/20 02:32:58;;;;;;;5.93;2.67;;;17.60;99.90;;;18.53;100.00;98568.78;5002539;28;20546;-77
2022/05/20 02:35:28;;;;;;;5.67;2.80;;;17.60;99.90;;;18.52;100.00;98560.03;5000637;28;20499;-77
2022/05/20 02:38:08;;;;;;;5.53;2.60;;;17.70;99.90;;;18.53;100.00;98556.31;4999155;28;20541;-77
2022/05/20 02:40:39;;;;;;;9.13;2.83;;;17.60;99.90;;;18.53;100.00;98553.66;5001856;28;20463;-77
2022/05/20 02:43:09;;;;;;;6.27;2.90;;;17.70;99.90;;;18.53;100.00;98545.72;5000814;28;20499;-77
2022/05/20 02:45:40;;;;;;;6.20;2.90;;;17.60;99.90;;;18.53;100.00;98552.88;5000179;28;20463;-77
2022/05/20 02:48:12;;;;;;;14.73;3.47;;;17.70;99.90;;;18.52;100.00;98552.06;5001201;28;20470;-77
2022/05/20 02:50:43;;;;;;;13.40;3.20;;;17.70;99.90;;;18.51;100.00;98549.63;5002553;28;20566;-77
2022/05/20 02:53:13;;;;;;;6.40;3.03;;;17.70;99.90;;;18.47;100.00;98554.53;5000429;28;20458;-78
2022/05/20 02:55:42;;;;;;;13.93;2.90;;;17.80;99.90;;;18.45;100.00;98543.38;5002200;28;20471;-77
2022/05/20 03:04:09;;;;;;;5.10;3.07;;;17.70;99.90;;;18.43;100.00;98545.44;5002378;28;20956;-77
2022/05/20 03:04:11;;;;;;;4.97;2.93;;;17.60;99.90;;;18.44;100.00;98551.53;5000017;28;20554;-77
2022/05/20 03:06:43;;;;;;;4.23;2.53;;;17.60;99.90;;;18.43;100.00;98540.13;5002942;28;20878;-77
2022/05/20 03:09:16;;;;;;;3.67;2.70;;;17.60;99.90;;;18.46;100.00;98537.06;4999934;28;20905;-78
2022/05/20 03:11:45;;;;;;;5.13;2.90;;;17.60;99.90;;;18.46;100.00;98536.25;5006424;28;20470;-76
2022/05/20 03:14:21;;;;;;;4.50;3.20;;;17.60;99.90;;;18.47;100.00;98525.41;4999394;28;20467;-77
2022/05/20 03:16:51;;;;;;;5.67;2.70;;;17.50;99.90;;;18.48;100.00;98524.38;5012214;28;21094;-77
2022/05/20 03:19:22;;;;;;;5.67;2.97;;;17.60;99.90;;;18.46;100.00;98526.47;4997828;28;21401;-77
2022/05/20 03:21:53;;;;;;;3.23;2.60;;;17.60;99.90;;;18.45;100.00;98521.38;4999664;28;20482;-88
2022/05/20 03:24:23;;;;;;;9.17;5.57;;;17.60;99.90;;;18.44;100.00;98539.09;5001560;28;20465;-77
2022/05/20 03:26:53;;;;;;;6.43;2.70;;;17.50;99.90;;;18.43;100.00;98548.06;5000820;28;20454;-77
2022/05/20 03:29:25;;;;;;;8.73;2.60;;;17.60;99.90;;;18.43;100.00;98547.28;5003097;28;20533;-77
2022/05/20 03:31:55;;;;;;;7.63;3.10;;;17.60;99.90;;;18.41;100.00;98563.41;5004182;28;20466;-77
2022/05/20 03:34:25;;;;;;;9.03;2.83;;;17.60;99.90;;;18.38;100.00;98558.56;5001863;28;20479;-77
2022/05/20 03:36:55;;;;;;;11.20;3.27;;;17.70;99.90;;;18.37;100.00;98559.56;5002259;28;20483;-77
2022/05/20 03:39:26;;;;;;;8.20;3.20;;;17.60;99.90;;;18.37;100.00;98556.94;5006434;28;20458;-78
2022/05/20 03:41:57;;;;;;;3.80;2.63;;;17.60;99.90;;;18.38;100.00;98544.50;5000039;28;21043;-77
2022/05/20 03:44:28;;;;;;;25.93;13.33;;;17.50;99.90;;;18.37;100.00;98551.63;4999447;28;20549;-86
2022/05/20 03:46:59;;;;;;;15.07;3.90;;;17.50;99.90;;;18.37;100.00;98556.09;5000136;28;20597;-78
2022/05/20 03:49:30;;;;;;;4.40;2.87;;;17.50;99.90;;;18.36;100.00;98570.41;4999847;28;20974;-76
2022/05/20 03:52:00;;;;;;;9.37;3.20;;;17.50;99.90;;;18.34;100.00;98559.22;4995771;28;20518;-76
2022/05/20 03:54:33;;;;;;;8.33;2.87;;;17.50;99.90;;;18.33;100.00;98553.09;5000136;28;20556;-75
2022/05/20 03:57:05;;;;;;;7.97;3.30;;;17.50;99.90;;;18.31;100.00;98539.28;5002042;28;20483;-75
2022/05/20 03:59:36;;;;;;;8.30;3.10;;;17.40;99.90;;;18.31;100.00;98539.28;4999842;28;20483;-75
2022/05/20 04:02:08;;;;;;;5.60;3.20;;;17.40;99.90;;;18.30;100.00;98542.16;5000682;28;20476;-76
2022/05/20 04:04:41;;;;;;;4.57;3.33;;;17.30;99.90;;;18.29;100.00;98546.63;5002167;28;20451;-75
2022/05/20 04:07:14;;;;;;;5.30;3.10;;;17.30;99.90;;;18.26;100.00;98544.44;5002438;28;20545;-75
2022/05/20 04:09:43;;;;;;;10.40;3.10;;;17.30;99.90;;;18.22;100.00;98543.28;5002958;28;20463;-76
2022/05/20 04:12:22;;;;;;;9.33;2.77;;;17.30;99.90;;;18.20;100.00;98539.22;5000478;28;20519;-76
2022/05/20 04:14:53;;;;;;;9.87;3.20;;;17.30;99.90;;;18.19;100.00;98529.69;5000890;28;20513;-75
2022/05/20 04:17:23;;;;;;;5.73;2.80;;;17.30;99.90;;;18.18;100.00;98536.00;5001060;28;20490;-75
2022/05/20 04:19:54;;;;;;;6.20;3.33;;;17.30;99.90;;;18.17;100.00;98540.50;5001952;28;20471;-76
2022/05/20 04:22:28;;;;;;;5.00;3.17;;;17.30;99.90;;;18.17;100.00;98537.03;5000620;28;20513;-82
2022/05/20 04:24:57;;;;;;;31.43;15.80;;;17.30;99.90;;;18.15;100.00;98542.56;5001026;28;20468;-78
2022/05/20 04:27:27;;;;;;;6.83;3.50;;;17.30;99.90;;;18.17;100.00;98544.97;4999947;28;20455;-87
2022/05/20 04:29:59;;;;;;;6.93;3.73;;;17.20;99.90;;;18.16;100.00;98540.69;5003278;28;20843;-78
2022/05/20 04:32:28;;;;;;;6.17;2.50;;;17.20;99.90;;;18.17;100.00;98548.44;5002466;28;20702;-77
2022/05/20 04:34:57;;;;;;;6.23;3.93;;;17.20;99.90;;;18.14;100.00;98551.53;5001206;28;20850;-77
2022/05/20 04:37:27;;;;;;;5.67;3.27;;;17.20;99.90;;;18.11;100.00;98544.03;4999479;28;20488;-77
2022/05/20 04:39:57;;;;;;;5.20;2.60;;;17.30;99.90;;;18.08;100.00;98544.50;5003627;28;20820;-78
2022/05/20 04:48:03;;;;;;;4.30;2.80;;;17.30;99.90;;;18.13;100.00;98554.38;5008096;28;20451;-77
2022/05/20 04:50:32;;;;;;;3.20;2.90;;;17.20;99.90;;;18.09;100.00;98554.03;5005205;28;20471;-78
2022/05/20 04:53:07;;;;;;;8.43;3.30;;;17.30;99.90;;;18.06;100.00;98551.81;5001344;28;20443;-77
2022/05/20 04:55:35;;;;;;;6.13;3.60;;;17.30;99.90;;;18.06;100.00;98565.88;5001536;28;20525;-78
2022/05/20 04:58:06;;;;;;;4.90;3.13;;;17.30;99.90;;;18.09;100.00;98572.56;5001286;28;20490;-78
2022/05/20 05:00:43;;;;;;;6.30;3.30;;;17.30;99.90;;;18.12;100.00;98574.75;5003127;28;20545;-77
2022/05/20 05:03:12;;;;;;;5.77;3.67;;;17.30;99.90;;;18.13;100.00;98579.03;5002017;28;20447;-78
2022/05/20 05:05:43;;;;;;;6.00;3.80;;;17.40;99.90;;;18.15;100.00;98565.59;5002396;28;20566;-77
2022/05/20 05:08:16;;;;;;;13.20;3.80;;;17.40;99.90;;;18.17;100.00;98555.56;5000943;28;20467;-77
2022/05/20 05:10:47;;;;;;;6.27;3.63;;;17.30;99.90;;;18.19;100.00;98561.47;5000381;28;20510;-78
2022/05/20 05:13:16;;;;;;;7.30;3.83;;;17.30;99.90;;;18.18;100.00;98554.53;5002023;28;20506;-77
2022/05/20 05:15:48;;;;;;;10.40;3.70;;;17.30;99.90;;;18.19;100.00;98556.94;4999913;28;20946;-77
2022/05/20 05:18:22;;;;;;;5.77;3.13;;;17.30;99.90;;;18.19;100.00;98556.16;5001277;28;20487;-78
2022/05/20 05:20:53;;;;;;;12.43;3.83;;;17.40;99.90;;;18.20;100.00;98555.94;5000670;28;21111;-78
2022/05/20 05:23:23;;;;;;;4.97;3.43;;;17.40;99.90;;;18.23;100.00;98558.13;5002269;28;20439;-77
2022/05/20 05:25:53;;;;;;;6.67;3.30;;;17.40;99.90;;;18.25;100.00;98547.31;5002208;28;20452;-77
2022/05/20 05:28:23;;;;;;;4.83;3.40;;;17.40;99.90;;;18.29;100.00;98551.94;5002233;28;20455;-78
2022/05/20 05:30:54;;;;;;;4.03;3.17;;;17.50;99.90;;;18.31;100.00;98552.53;5001039;28;20444;-78
2022/05/20 05:33:24;;;;;;;6.60;3.83;;;17.50;99.90;;;18.33;100.00;98553.09;5000885;28;20442;-78
2022/05/20 05:35:54;;;;;;;5.40;3.30;;;17.50;99.90;;;18.36;100.00;98552.66;5003111;28;20450;-77
2022/05/20 05:38:26;;;;;;;5.27;3.70;;;17.50;99.90;;;18.39;100.00;98540.81;5005508;28;20515;-77
2022/05/20 05:40:57;;;;;;;11.70;3.60;;;17.50;99.90;;;18.42;100.00;98535.88;5002924;28;20443;-77
2022/05/20 05:43:27;;;;;;;5.67;3.67;;;17.50;99.90;;;18.42;100.00;98527.94;5000817;28;20780;-78
2022/05/20 05:45:58;;;;;;;6.07;3.43;;;17.60;99.90;;;18.43;100.00;98539.34;5000560;28;20466;-77
2022/05/20 05:48:29;;;;;;;4.20;3.60;;;17.60;99.90;;;18.45;100.00;98546.03;5002192;28;20472;-76
2022/05/20 05:50:59;;;;;;;12.63;3.43;;;17.60;99.90;;;18.46;100.00;98547.66;5004493;28;20841;-77
2022/05/20 05:53:29;;;;;;;5.30;4.00;;;17.70;99.90;;;18.49;100.00;98539.25;5004149;28;20475;-77
2022/05/20 05:56:01;;;;;;;6.30;3.60;;;17.70;99.90;;;18.54;100.00;98528.81;5005167;28;20495;-77
2022/05/20 05:58:32;;;;;;;8.00;4.10;;;17.70;99.90;;;18.55;100.00;98533.06;5004495;28;20995;-77
2022/05/20 06:01:05;;;;;;;14.23;3.30;;;17.70;99.90;;;18.57;100.00;98533.66;5005374;28;20451;-78
2022/05/20 06:03:34;;;;;;;7.23;3.50;;;17.80;99.90;;;18.60;100.00;98538.50;5003258;28;20933;-77
2022/05/20 06:06:06;;;;;;;12.10;4.37;;;17.90;99.90;;;18.65;100.00;98534.34;5005512;28;20451;-77
2022/05/20 06:08:36;;;;;;;11.43;4.50;;;17.90;99.90;;;18.69;100.00;98532.88;5004559;28;20463;-77
2022/05/20 06:11:07;;;;;;;7.83;3.80;;;17.90;99.90;;;18.73;100.00;98534.03;5004197;28;20459;-77
2022/05/20 06:13:36;;;;;;;11.40;4.40;;;18.00;99.90;;;18.76;100.00;98534.41;5005084;28;20973;-78
2022/05/20 06:16:06;;;;;;;6.50;3.40;;;18.00;99.90;;;18.76;100.00;98528.28;5004423;28;20451;-77
2022/05/20 06:18:41;;;;;;;5.37;4.10;;;18.00;99.90;;;18.79;100.00;98533.13;5003872;28;20710;-76
2022/05/20 06:21:11;;;;;;;6.57;4.17;;;18.00;99.90;;;18.82;100.00;98533.47;5004115;28;20455;-77
2022/05/20 06:23:41;;;;;;;11.43;4.37;;;18.10;99.90;;;18.86;100.00;98536.47;5004598;28;20451;-76
2022/05/20 06:26:12;;;;;;;11.03;3.90;;;18.10;99.90;;;18.88;100.00;98534.44;5005543;28;20443;-76
2022/05/20 06:28:46;;;;;;;6.17;4.73;;;18.00;99.90;;;18.91;100.00;98528.66;5002752;28;20466;-76
2022/05/20 06:31:17;;;;;;;8.00;4.73;;;18.10;99.90;;;18.95;100.00;98520.00;5001846;28;20439;-76
2022/05/20 06:33:48;;;;;;;7.47;4.87;;;18.10;99.90;;;18.99;100.00;98520.38;4999104;28;20451;-77
2022/05/20 06:41:53;;;;;;;7.33;5.00;;;18.30;99.90;;;19.13;100.00;98527.06;5003419;28;20899;-76
2022/05/20 06:44:25;;;;;;;9.97;5.23;;;18.30;99.90;;;19.19;100.00;98528.81;5004931;28;20443;-76
2022/05/20 06:46:56;;;;;;;10.40;5.10;;;18.40;99.90;;;19.25;100.00;98527.88;5003652;28;20471;-76
2022/05/20 06:49:27;;;;;;;6.10;5.20;;;18.50;99.90;;;19.32;100.00;98533.06;5005085;28;20539;-77
2022/05/20 06:52:00;;;;;;;9.67;5.13;;;18.50;99.90;;;19.37;100.00;98527.88;5002294;28;20460;-76
2022/05/20 06:54:50;;;;;;;14.83;4.77;;;18.60;99.90;;;19.44;100.00;98517.97;5004260;28;20478;-76
2022/05/20 06:57:25;;;;;;;12.03;5.30;;;18.70;99.90;;;19.50;100.00;98515.22;5004061;28;20443;-77
2022/05/20 06:59:55;;;;;;;9.23;5.47;;;18.70;99.90;;;19.55;100.00;98519.81;5005142;28;20490;-76
2022/05/20 07:02:27;;;;;;;7.43;5.60;;;18.70;99.90;;;19.62;100.00;98512.53;5005865;28;20482;-76
2022/05/20 07:05:03;;;;;;;11.00;6.30;;;18.80;99.90;;;19.69;100.00;98517.72;5006217;28;20527;-76
2022/05/20 07:07:33;;;;;;;8.00;5.80;;;18.90;99.90;;;19.75;100.00;98516.81;5009524;28;20483;-76
2022/05/20 07:10:06;;;;;;;9.53;5.37;;;19.00;99.90;;;19.78;100.00;98514.50;5009887;28;20551;-76
2022/05/20 07:12:35;;;;;;;7.73;5.90;;;19.10;99.90;;;19.83;100.00;98513.78;5008937;28;20866;-77
2022/05/20 07:15:08;;;;;;;6.70;5.50;;;19.10;99.90;;;19.88;100.00;98509.38;5006733;28;20451;-77
2022/05/20 07:17:39;;;;;;;13.47;6.37;;;19.20;99.90;;;19.95;100.00;98503.94;5003314;28;20443;-76
2022/05/20 07:20:11;;;;;;;7.93;5.17;;;19.20;99.90;;;19.94;100.00;98497.00;5003472;28;20486;-77
2022/05/20 07:22:41;;;;;;;8.60;4.90;;;19.30;99.90;;;19.95;100.00;98494.13;5003660;28;20828;-76
2022/05/20 07:25:11;;;;;;;13.67;5.77;;;19.40;99.90;;;20.02;100.00;98488.69;5003398;28;20466;-77
2022/05/20 07:27:41;;;;;;;8.97;5.43;;;19.40;99.90;;;20.09;100.00;98484.03;5006834;28;20466;-77
2022/05/20 07:30:15;;;;;;;8.63;5.23;;;19.40;99.90;;;20.16;100.00;98476.75;5008929;28;21212;-76
2022/05/20 07:32:46;;;;;;;18.77;5.37;;;19.50;99.90;;;20.23;100.00;98474.75;5007788;28;20567;-76
2022/05/20 07:35:16;;;;;;;8.60;5.57;;;19.50;99.90;;;20.27;100.00;98464.44;5007318;28;21401;-77
2022/05/20 07:37:45;;;;;;;7.20;5.33;;;19.60;99.90;;;20.30;100.00;98475.44;5006824;28;20561;-76
2022/05/20 07:40:16;;;;;;;8.87;5.60;;;19.60;99.90;;;20.36;100.00;98468.34;5008635;28;20490;-76
2022/05/20 07:42:47;;;;;;;10.63;6.17;;;19.70;99.90;;;20.40;100.00;98464.16;5007788;28;20454;-76
2022/05/20 07:45:18;;;;;;;11.70;6.70;;;19.70;99.90;;;20.47;100.00;98462.97;5003454;28;20505;-76
2022/05/20 07:47:50;;;;;;;7.20;5.60;;;19.80;99.90;;;20.52;100.00;98465.72;5003508;28;20519;-76
2022/05/20 07:50:20;;;;;;;11.13;5.80;;;19.90;99.90;;;20.54;100.00;98474.25;5002717;28;20545;-76
2022/05/20 07:55:47;;;;;;;9.43;5.23;;;19.90;99.90;;;20.69;100.00;98479.00;5003906;28;20470;-76
2022/05/20 07:58:22;;;;;;;13.40;6.00;;;20.00;99.90;;;20.74;100.00;98471.13;5003648;28;20443;-76
2022/05/20 08:01:12;;;;;;;9.60;6.10;;;20.10;99.90;;;20.78;100.00;98466.13;5004605;28;20447;-76
2022/05/20 08:06:34;;;;;;;9.40;6.30;;;20.10;99.90;;;20.91;100.00;98444.53;5003400;28;20463;-77
2022/05/20 08:09:06;;;;;;;12.20;5.57;;;20.20;99.90;;;20.91;100.00;98453.31;5003137;28;20440;-76
2022/05/20 08:11:37;;;;;;;11.07;6.53;;;20.20;99.90;;;20.96;100.00;98449.94;5002330;28;21291;-76
2022/05/20 08:14:07;;;;;;;16.60;6.70;;;20.30;99.90;;;21.01;100.00;98453.47;5003116;28;20857;-76
2022/05/20 08:16:37;;;;;;;6.73;6.00;;;20.40;99.90;;;21.06;100.00;98448.22;5008784;28;20459;-76
2022/05/20 08:19:09;;;;;;;10.73;6.10;;;20.40;99.90;;;21.09;100.00;98441.59;5004022;28;20493;-76
2022/05/20 08:21:39;;;;;;;9.93;5.90;;;20.50;99.90;;;21.14;100.00;98443.56;5002278;28;20510;-77
2022/05/20 08:24:09;;;;;;;6.00;5.30;;;20.50;99.90;;;21.18;100.00;98450.78;5002039;28;20455;-77
2022/05/20 08:26:39;;;;;;;11.93;5.20;;;20.50;99.90;;;21.23;100.00;98453.53;5003545;28;21348;-77
2022/05/20 08:29:12;;;;;;;9.73;5.90;;;20.50;99.90;;;21.28;100.00;98434.97;5004209;28;20498;-77
2022/05/20 08:31:43;;;;;;;8.03;5.10;;;20.60;99.90;;;21.33;100.00;98436.91;5002300;28;20462;-76
2022/05/20 08:34:14;;;;;;;16.63;6.27;;;20.70;99.90;;;21.36;100.00;98441.72;5003168;28;20444;-76
2022/05/20 08:36:45;;;;;;;6.67;4.73;;;20.60;99.90;;;21.39;100.00;98431.41;5000713;28;20435;-77
2022/05/20 08:39:14;;;;;;;7.20;5.30;;;20.80;99.90;;;21.45;100.00;98435.72;5003420;28;20488;-76
2022/05/20 08:41:52;;;;;;;9.77;5.17;;;20.80;99.90;;;21.48;100.00;98424.59;5002093;28;20541;-76
2022/05/20 08:44:24;;;;;;;11.50;5.20;;;20.90;99.90;;;21.49;100.00;98418.22;5007635;28;20445;-76
2022/05/20 08:47:14;;;;;;;6.33;4.43;;;20.90;99.90;;;21.54;100.00;98417.47;5006877;28;20447;-76
2022/05/20 08:49:45;;;;;;;7.17;5.03;;;21.00;99.90;;;21.52;100.00;98415.06;5006904;28;20471;-76
2022/05/20 08:52:15;;;;;;;25.17;6.00;;;21.00;99.90;;;21.54;100.00;98412.97;5001178;28;20948;-76
2022/05/20 08:54:46;;;;;;;15.60;4.60;;;21.00;99.90;;;21.57;100.00;98399.16;5001571;28;20435;-76
2022/05/20 08:57:37;;;;;;;13.20;5.33;;;21.10;99.90;;;21.62;100.00;98405.59;5001847;28;20523;-77
2022/05/20 09:00:12;;;;;;;7.90;5.00;;;21.10;99.90;;;21.66;100.00;98401.38;5001590;28;20510;-77
2022/05/20 09:02:43;;;;;;;7.70;4.73;;;21.10;99.90;;;21.68;100.00;98399.25;5001480;28;20813;-77
2022/05/20 09:05:26;;;;;;;14.37;5.03;;;21.10;99.90;;;21.71;100.00;98396.09;5001768;28;20475;-77
2022/05/20 09:08:24;;;;;;;10.40;4.97;;;21.20;99.90;;;21.73;100.00;98389.47;5001499;28;20541;-77
2022/05/20 09:10:57;;;;;;;15.20;5.00;;;21.20;99.90;;;21.73;100.00;98388.69;5001370;28;21441;-76
2022/05/20 09:16:19;;;;;;;9.50;5.07;;;21.20;99.90;;;21.76;100.00;98377.53;4980886;28;20509;-77
2022/05/20 09:19:03;;;;;;;8.20;5.37;;;21.10;99.90;;;21.82;100.00;98381.84;5004323;28;20452;-76
2022/05/20 09:21:38;;;;;;;12.30;4.50;;;21.20;99.90;;;21.88;100.00;98378.16;5002980;28;20998;-76
2022/05/20 09:24:17;;;;;;;7.60;4.90;;;21.30;99.90;;;21.93;100.00;98372.94;5002455;28;20538;-77
2022/05/20 09:26:53;;;;;;;13.83;5.33;;;21.30;99.90;;;21.98;100.00;98367.66;5001083;28;20443;-77
2022/05/20 09:29:33;;;;;;;8.23;5.10;;;21.40;99.90;;;21.96;100.00;98364.44;5001437;28;20459;-76
2022/05/20 09:32:44;;;;;;;15.47;5.00;;;21.40;99.90;;;22.03;100.00;98367.72;4999887;28;20958;-77
2022/05/20 09:35:24;;;;;;;20.03;4.57;;;21.40;99.90;;;22.07;100.00;98358.16;5001286;28;20451;-77
2022/05/20 09:37:56;;;;;;;6.30;5.30;;;21.50;99.90;;;22.08;100.00;98355.22;4999974;28;20436;-77
2022/05/20 09:40:34;;;;;;;8.70;4.80;;;21.50;99.90;;;22.15;100.00;98349.69;5001527;28;20515;-77
2022/05/20 09:43:27;;;;;;;9.73;4.80;;;21.60;99.90;;;22.19;100.00;98344.66;5000352;28;20962;-77
2022/05/20 09:46:01;;;;;;;9.77;5.03;;;21.60;99.90;;;22.26;100.00;98351.38;5000169;28;20468;-76
2022/05/20 09:48:40;;;;;;;11.00;5.30;;;21.70;99.90;;;22.30;100.00;98336.50;5002668;28;20431;-76
2022/05/20 09:51:20;;;;;;;9.43;4.93;;;21.80;99.90;;;22.33;100.00;98335.97;5005693;28;20466;-76
2022/05/20 09:54:14;;;;;;;13.17;5.50;;;21.80;99.90;;;22.41;100.00;98343.50;5005278;28;20450;-76
2022/05/20 09:56:48;;;;;;;7.50;4.13;;;21.80;99.90;;;22.47;100.00;98333.69;5004192;28;20946;-76
2022/05/20 09:59:32;;;;;;;8.40;4.20;;;21.90;99.90;;;22.56;100.00;98330.28;5001071;28;20821;-77
2022/05/20 10:02:11;;;;;;;9.00;3.90;;;22.00;99.90;;;22.64;100.00;98333.50;5004300;28;20955;-77
2022/05/20 10:04:58;;;;;;;8.37;4.20;;;22.10;99.90;;;22.71;100.00;98331.47;5005842;28;20539;-76
2022/05/20 10:07:45;;;;;;;13.00;4.50;;;22.20;99.90;;;22.83;100.00;98318.75;5003665;28;21336;-76
2022/05/20 10:10:38;;;;;;;10.20;4.10;;;22.30;99.90;;;22.93;100.00;98305.44;5001049;28;21005;-77
2022/05/20 10:13:19;;;;;;;9.00;4.60;;;22.40;99.90;;;23.01;100.00;98289.72;5000817;28;20450;-76
2022/05/20 10:16:01;;;;;;;11.90;4.20;;;22.50;99.90;;;23.11;100.00;98272.97;5001680;28;20444;-76
2022/05/20 10:18:46;;;;;;;9.10;4.73;;;22.50;99.90;;;23.18;100.00;98256.72;4998022;28;20502;-76
2022/05/20 10:21:53;;;;;;;16.03;4.43;;;22.70;99.90;;;23.26;100.00;98269.53;5001621;28;20480;-77
2022/05/20 10:24:48;;;;;;;11.57;5.20;;;22.80;99.90;;;23.34;100.00;98255.69;5001399;28;20505;-77
2022/05/20 10:27:26;;;;;;;12.90;4.70;;;22.90;99.90;;;23.34;100.00;98245.81;5000153;28;20984;-76
2022/05/20 10:33:01;;;;;;;14.50;4.20;;;22.90;99.90;;;23.40;100.00;98275.97;5000408;28;20436;-76
2022/05/20 10:35:54;;;;;;;6.87;4.00;;;22.90;99.90;;;23.42;100.00;98261.34;4998713;28;20571;-76
2022/05/20 10:38:58;;;;;;;9.73;4.37;;;22.90;99.90;;;23.41;100.00;98251.72;5000376;28;20873;-76
2022/05/20 10:42:11;;;;;;;8.90;4.30;;;22.90;99.90;;;23.45;100.00;98198.59;5004537;28;20534;-77
2022/05/20 10:51:06;;;;;;;8.63;4.50;;;23.00;99.90;;;23.60;100.00;98195.94;5004123;28;20475;-76
2022/05/20 10:53:53;;;;;;;15.30;4.60;;;23.10;99.90;;;23.65;100.00;98203.16;5003360;28;20447;-76
2022/05/20 10:56:44;;;;;;;11.53;4.77;;;23.10;99.90;;;23.62;100.00;98262.44;5004586;28;20498;-77
2022/05/20 10:59:54;;;;;;;11.60;4.03;;;23.00;99.90;;;23.63;100.00;98261.38;5004490;28;20447;-76
2022/05/20 11:03:04;;;;;;;4.70;4.00;;;23.00;99.90;;;23.62;100.00;98252.56;5003133;28;20463;-76
2022/05/20 11:06:31;;;;;;;13.37;4.73;;;23.00;99.90;;;23.70;100.00;98233.34;5003977;28;20958;-76
2022/05/20 11:09:06;;;;;;;11.33;4.67;;;23.10;99.90;;;23.80;100.00;98222.66;4988269;28;20439;-76
2022/05/20 11:11:57;;;;;;;13.33;5.00;;;23.20;99.90;;;23.91;100.00;98207.41;5004305;28;20447;-76
2022/05/20 11:15:28;;;;;;;11.90;4.40;;;23.20;99.90;;;23.97;100.00;98201.00;5002998;28;20941;-76